Time;durP1;ratioP1;P1;durP2;ratioP2;P2;SDS_P1;SDS_P2;PMS_P1;PMS_P2;Temp;Humidity;BMP_temperature;BMP_pressure;BME280_temperature;BME280_humidity;BME280_pressure;Samples;Min_cycle;Max_cycle;Signal;HPM_P1;HPM_P2
2023/05/07 00:01:39;;;;;;;57.60;2.40;;;;;;;;;;5071732;28;20494;-70
2023/05/07 00:04:07;;;;;;;57.90;2.50;;;;;;;;;;5072103;28;20903;-69
2023/05/07 00:06:34;;;;;;;57.57;2.63;;;;;;;;;;5072060;28;20907;-70
2023/05/07 00:09:01;;;;;;;57.50;2.37;;;;;;;;;;5071456;28;20447;-69
2023/05/07 00:11:28;;;;;;;57.37;2.40;;;;;;;;;;5071709;28;20464;-70
2023/05/07 00:13:56;;;;;;;57.37;2.33;;;;;;;;;;5071968;28;20454;-69
2023/05/07 00:16:24;;;;;;;57.77;2.90;;;;;;;;;;5071943;28;20444;-69
2023/05/07 00:18:51;;;;;;;58.00;3.00;;;;;;;;;;5071361;28;20447;-70
2023/05/07 00:21:19;;;;;;;58.80;3.37;;;;;;;;;;5071671;28;20517;-70
2023/05/07 00:23:46;;;;;;;57.37;2.60;;;;;;;;;;5071647;28;20466;-69
2023/05/07 00:26:13;;;;;;;57.50;2.80;;;;;;;;;;5071616;28;20835;-69
2023/05/07 00:28:40;;;;;;;57.57;2.63;;;;;;;;;;5071306;28;20451;-69
2023/05/07 00:31:07;;;;;;;57.33;2.40;;;;;;;;;;5071750;28;20470;-70
2023/05/07 00:33:36;;;;;;;58.53;3.00;;;;;;;;;;5071604;28;20444;-69
2023/05/07 00:36:03;;;;;;;59.87;2.60;;;;;;;;;;5071697;28;20451;-69
2023/05/07 00:38:30;;;;;;;57.47;2.47;;;;;;;;;;5071487;28;20465;-69
2023/05/07 00:40:57;;;;;;;57.67;2.40;;;;;;;;;;5071219;28;20473;-70
2023/05/07 00:43:24;;;;;;;57.70;2.80;;;;;;;;;;5071596;28;20958;-69
2023/05/07 00:45:51;;;;;;;57.73;2.80;;;;;;;;;;5071648;28;20454;-70
2023/05/07 00:48:18;;;;;;;57.60;2.53;;;;;;;;;;5072365;28;20454;-70
2023/05/07 00:50:47;;;;;;;57.57;2.73;;;;;;;;;;5075190;28;20463;-69
2023/05/07 00:53:15;;;;;;;57.80;3.20;;;;;;;;;;5075474;28;20454;-69
2023/05/07 00:55:42;;;;;;;57.70;2.60;;;;;;;;;;5075606;28;20455;-69
2023/05/07 00:58:09;;;;;;;57.33;2.30;;;;;;;;;;5075642;28;20453;-69
2023/05/07 01:00:37;;;;;;;58.93;3.10;;;;;;;;;;5075175;28;20987;-69
2023/05/07 01:03:04;;;;;;;58.87;3.63;;;;;;;;;;5075341;28;20447;-70
2023/05/07 01:05:31;;;;;;;57.40;2.37;;;;;;;;;;5075281;28;20494;-70
2023/05/07 01:08:00;;;;;;;57.80;2.90;;;;;;;;;;5075027;28;20504;-69
2023/05/07 01:10:27;;;;;;;57.50;2.37;;;;;;;;;;5074729;28;20474;-69
2023/05/07 01:12:55;;;;;;;57.53;2.30;;;;;;;;;;5075041;28;20485;-69
2023/05/07 01:15:22;;;;;;;57.40;2.50;;;;;;;;;;5075111;28;20455;-69
2023/05/07 01:17:49;;;;;;;57.57;2.83;;;;;;;;;;5075086;28;20447;-70
2023/05/07 01:20:17;;;;;;;58.43;2.60;;;;;;;;;;5074403;28;20469;-69
2023/05/07 01:22:45;;;;;;;57.50;2.30;;;;;;;;;;5075059;28;20445;-69
2023/05/07 01:25:13;;;;;;;57.47;2.60;;;;;;;;;;5074701;28;20465;-69
2023/05/07 01:27:40;;;;;;;58.03;3.57;;;;;;;;;;5074985;28;20581;-70
2023/05/07 01:30:09;;;;;;;58.00;2.93;;;;;;;;;;5074463;28;20832;-69
2023/05/07 01:32:39;;;;;;;57.47;2.50;;;;;;;;;;5075187;28;20483;-69
2023/05/07 01:35:07;;;;;;;57.70;2.63;;;;;;;;;;5074632;28;20466;-69
2023/05/07 01:37:35;;;;;;;57.40;2.43;;;;;;;;;;5074739;28;20509;-70
2023/05/07 01:40:04;;;;;;;57.60;2.47;;;;;;;;;;5074223;28;20467;-69
2023/05/07 01:42:31;;;;;;;57.80;2.87;;;;;;;;;;5074461;28;20450;-69
2023/05/07 01:44:58;;;;;;;59.40;4.57;;;;;;;;;;5074542;28;20447;-69
2023/05/07 01:47:26;;;;;;;57.53;2.43;;;;;;;;;;5074312;28;20455;-69
2023/05/07 01:49:53;;;;;;;57.50;2.60;;;;;;;;;;5074259;28;20467;-70
2023/05/07 01:52:21;;;;;;;57.53;2.83;;;;;;;;;;5074605;28;20479;-69
2023/05/07 01:54:48;;;;;;;57.40;2.40;;;;;;;;;;5074430;28;20452;-69
2023/05/07 01:57:16;;;;;;;58.30;2.90;;;;;;;;;;5073790;28;20448;-70
2023/05/07 01:59:43;;;;;;;57.33;2.37;;;;;;;;;;5072254;28;20464;-69
2023/05/07 02:02:11;;;;;;;57.30;2.40;;;;;;;;;;5074178;28;21046;-69
2023/05/07 02:04:38;;;;;;;57.57;2.63;;;;;;;;;;5074288;28;20445;-70
2023/05/07 02:07:05;;;;;;;57.13;2.40;;;;;;;;;;5074003;28;20443;-69
2023/05/07 02:09:32;;;;;;;57.87;2.80;;;;;;;;;;5073618;28;20459;-70
2023/05/07 02:11:59;;;;;;;58.33;3.70;;;;;;;;;;5073829;28;20479;-69
2023/05/07 02:14:28;;;;;;;57.70;2.60;;;;;;;;;;5073886;28;20542;-69
2023/05/07 02:16:55;;;;;;;58.00;3.43;;;;;;;;;;5074115;28;20459;-69
2023/05/07 02:19:22;;;;;;;58.30;2.57;;;;;;;;;;5073363;28;20447;-69
2023/05/07 02:21:50;;;;;;;57.67;2.70;;;;;;;;;;5074235;28;20444;-69
2023/05/07 02:24:17;;;;;;;57.60;2.77;;;;;;;;;;5073631;28;20470;-69
2023/05/07 02:26:44;;;;;;;57.47;2.50;;;;;;;;;;5073575;28;20956;-69
2023/05/07 02:29:11;;;;;;;57.60;2.30;;;;;;;;;;5073553;28;20447;-69
2023/05/07 02:31:39;;;;;;;60.43;3.63;;;;;;;;;;5073553;28;20491;-69
2023/05/07 02:34:07;;;;;;;57.23;2.40;;;;;;;;;;5073661;28;20447;-69
2023/05/07 02:36:34;;;;;;;57.40;2.50;;;;;;;;;;5073636;28;20825;-69
2023/05/07 02:39:02;;;;;;;57.70;2.43;;;;;;;;;;5073114;28;20542;-69
2023/05/07 02:41:29;;;;;;;59.40;3.00;;;;;;;;;;5073586;28;20528;-69
2023/05/07 02:43:56;;;;;;;57.47;2.57;;;;;;;;;;5073614;28;20927;-70
2023/05/07 02:46:23;;;;;;;57.77;2.87;;;;;;;;;;5073431;28;20448;-69
2023/05/07 02:48:52;;;;;;;58.27;2.63;;;;;;;;;;5072928;28;20932;-69
2023/05/07 02:51:21;;;;;;;57.43;2.40;;;;;;;;;;5073173;28;20468;-69
2023/05/07 02:53:48;;;;;;;57.67;2.43;;;;;;;;;;5072983;28;20918;-69
2023/05/07 02:56:15;;;;;;;59.60;3.17;;;;;;;;;;5073346;28;20443;-69
2023/05/07 02:58:42;;;;;;;57.80;2.70;;;;;;;;;;5072745;28;20550;-69
2023/05/07 03:01:10;;;;;;;57.87;2.60;;;;;;;;;;5072694;28;20983;-69
2023/05/07 03:03:37;;;;;;;57.80;2.70;;;;;;;;;;5073025;28;20443;-69
2023/05/07 03:06:06;;;;;;;57.70;2.60;;;;;;;;;;5072899;28;20450;-69
2023/05/07 03:08:33;;;;;;;57.30;2.30;;;;;;;;;;5072645;28;20447;-69
2023/05/07 03:11:00;;;;;;;57.57;2.40;;;;;;;;;;5072080;28;20468;-69
2023/05/07 03:13:27;;;;;;;57.47;2.47;;;;;;;;;;5072851;28;20510;-69
2023/05/07 03:15:54;;;;;;;57.60;2.40;;;;;;;;;;5072784;28;20457;-69
2023/05/07 03:18:21;;;;;;;57.50;2.60;;;;;;;;;;5072625;28;20478;-69
2023/05/07 03:20:49;;;;;;;58.77;3.13;;;;;;;;;;5072208;28;20468;-69
2023/05/07 03:23:18;;;;;;;57.57;2.60;;;;;;;;;;5072746;28;20447;-69
2023/05/07 03:25:45;;;;;;;57.50;2.80;;;;;;;;;;5072467;28;20464;-69
2023/05/07 03:28:12;;;;;;;57.37;2.60;;;;;;;;;;5072555;28;20447;-69
2023/05/07 03:30:39;;;;;;;57.53;2.60;;;;;;;;;;5072258;28;20467;-69
2023/05/07 03:33:06;;;;;;;57.47;2.70;;;;;;;;;;5072298;28;20552;-69
2023/05/07 03:35:33;;;;;;;57.97;3.00;;;;;;;;;;5072564;28;20811;-69
2023/05/07 03:38:00;;;;;;;57.57;2.70;;;;;;;;;;5072469;28;20447;-70
2023/05/07 03:40:29;;;;;;;57.73;2.70;;;;;;;;;;5071959;28;21025;-69
2023/05/07 03:42:56;;;;;;;57.70;2.67;;;;;;;;;;5072230;28;20538;-69
2023/05/07 03:45:23;;;;;;;57.50;2.47;;;;;;;;;;5072168;28;20455;-69
2023/05/07 03:47:50;;;;;;;57.70;3.00;;;;;;;;;;5072051;28;20443;-69
2023/05/07 03:50:17;;;;;;;57.33;2.40;;;;;;;;;;5071665;28;20468;-69
2023/05/07 03:52:45;;;;;;;57.17;2.40;;;;;;;;;;5072398;28;20502;-69
2023/05/07 03:55:12;;;;;;;57.70;2.50;;;;;;;;;;5072239;28;20447;-69
2023/05/07 03:57:40;;;;;;;57.80;2.80;;;;;;;;;;5072054;28;20952;-69
2023/05/07 04:00:08;;;;;;;57.37;2.30;;;;;;;;;;5071659;28;20473;-69
2023/05/07 04:02:35;;;;;;;57.47;2.67;;;;;;;;;;5071867;28;20443;-69
2023/05/07 04:05:02;;;;;;;57.57;2.80;;;;;;;;;;5072106;28;20447;-69
2023/05/07 04:07:29;;;;;;;57.77;2.60;;;;;;;;;;5072049;28;20525;-69
2023/05/07 04:09:56;;;;;;;57.73;2.20;;;;;;;;;;5071556;28;20470;-69
2023/05/07 04:12:24;;;;;;;57.13;2.50;;;;;;;;;;5071826;28;20485;-69
2023/05/07 04:14:52;;;;;;;57.50;2.30;;;;;;;;;;5071762;28;20451;-69
2023/05/07 04:17:19;;;;;;;57.47;2.47;;;;;;;;;;5072025;28;20458;-69
2023/05/07 04:19:46;;;;;;;57.57;2.40;;;;;;;;;;5071352;28;20979;-69
2023/05/07 04:22:13;;;;;;;57.57;2.80;;;;;;;;;;5071557;28;21014;-69
2023/05/07 04:24:40;;;;;;;57.47;2.33;;;;;;;;;;5071600;28;20952;-69
2023/05/07 04:27:08;;;;;;;57.57;2.63;;;;;;;;;;5071770;28;20443;-69
2023/05/07 04:29:35;;;;;;;57.47;2.27;;;;;;;;;;5071275;28;20444;-69
2023/05/07 04:32:03;;;;;;;57.07;2.33;;;;;;;;;;5071761;28;20528;-69
2023/05/07 04:34:30;;;;;;;56.67;2.60;;;;;;;;;;5071789;28;20450;-69
2023/05/07 04:36:59;;;;;;;57.13;2.40;;;;;;;;;;5071716;28;20955;-69
2023/05/07 04:39:26;;;;;;;57.77;3.00;;;;;;;;;;5071292;28;20443;-69
2023/05/07 04:41:53;;;;;;;57.53;2.70;;;;;;;;;;5071525;28;20452;-69
2023/05/07 04:44:20;;;;;;;57.60;3.00;;;;;;;;;;5071839;28;20812;-69
2023/05/07 04:46:47;;;;;;;57.17;2.23;;;;;;;;;;5071929;28;20450;-68
2023/05/07 04:49:16;;;;;;;57.67;2.70;;;;;;;;;;5071130;28;20856;-69
2023/05/07 04:51:43;;;;;;;57.40;2.67;;;;;;;;;;5071544;28;20447;-69
2023/05/07 04:54:10;;;;;;;57.57;2.70;;;;;;;;;;5071381;28;20482;-69
2023/05/07 04:56:37;;;;;;;57.27;2.33;;;;;;;;;;5071409;28;20471;-69
2023/05/07 04:59:05;;;;;;;57.30;2.30;;;;;;;;;;5071106;28;20443;-69
2023/05/07 05:01:32;;;;;;;57.23;2.20;;;;;;;;;;5071513;28;20493;-69
2023/05/07 05:04:00;;;;;;;57.33;2.40;;;;;;;;;;5071452;28;20448;-69
2023/05/07 05:06:29;;;;;;;58.57;2.53;;;;;;;;;;5071496;28;20447;-69
2023/05/07 05:08:56;;;;;;;57.60;2.93;;;;;;;;;;5071025;28;20469;-69
2023/05/07 05:11:23;;;;;;;57.17;2.30;;;;;;;;;;5071142;28;20478;-69
2023/05/07 05:13:50;;;;;;;57.40;2.30;;;;;;;;;;5071421;28;20483;-69
2023/05/07 05:16:17;;;;;;;57.37;2.50;;;;;;;;;;5071344;28;20451;-69
2023/05/07 05:18:45;;;;;;;57.23;2.43;;;;;;;;;;5070913;28;20443;-69
2023/05/07 05:21:12;;;;;;;57.27;2.40;;;;;;;;;;5071231;28;20467;-69
2023/05/07 05:23:40;;;;;;;57.43;2.50;;;;;;;;;;5070878;28;20451;-69
2023/05/07 05:26:07;;;;;;;57.17;2.50;;;;;;;;;;5071388;28;20451;-69
2023/05/07 05:28:34;;;;;;;57.20;2.13;;;;;;;;;;5070864;28;20451;-68
2023/05/07 05:31:01;;;;;;;57.13;2.20;;;;;;;;;;5071129;28;20518;-69
2023/05/07 05:33:29;;;;;;;57.30;2.50;;;;;;;;;;5071000;28;20515;-69
2023/05/07 05:35:56;;;;;;;57.27;2.70;;;;;;;;;;5074393;28;20449;-69
2023/05/07 05:38:23;;;;;;;57.27;2.37;;;;;;;;;;5074332;28;20455;-69
2023/05/07 05:40:51;;;;;;;57.13;2.37;;;;;;;;;;5074393;28;20481;-69
2023/05/07 05:43:18;;;;;;;58.03;3.40;;;;;;;;;;5074709;28;20940;-69
2023/05/07 05:45:46;;;;;;;57.43;2.30;;;;;;;;;;5074622;28;20443;-69
2023/05/07 05:48:13;;;;;;;57.27;2.30;;;;;;;;;;5074337;28;20443;-69
2023/05/07 05:50:40;;;;;;;57.27;2.50;;;;;;;;;;5074059;28;20467;-69
2023/05/07 05:53:07;;;;;;;57.07;2.30;;;;;;;;;;5074514;28;20505;-69
2023/05/07 05:55:34;;;;;;;57.07;2.20;;;;;;;;;;5074510;28;20444;-70
2023/05/07 05:58:03;;;;;;;57.27;2.20;;;;;;;;;;5074164;28;20458;-70
2023/05/07 06:00:30;;;;;;;57.30;2.60;;;;;;;;;;5074043;28;20477;-70
2023/05/07 06:02:57;;;;;;;58.80;3.43;;;;;;;;;;5074186;28;20447;-69
2023/05/07 06:05:24;;;;;;;57.23;2.20;;;;;;;;;;5074070;28;20455;-69
2023/05/07 06:07:51;;;;;;;57.13;2.20;;;;;;;;;;5074425;28;20440;-69
2023/05/07 06:10:18;;;;;;;57.17;2.40;;;;;;;;;;5073952;28;20772;-69
2023/05/07 06:12:46;;;;;;;57.20;2.30;;;;;;;;;;5073865;28;20936;-70
2023/05/07 06:15:14;;;;;;;57.13;2.30;;;;;;;;;;5074005;28;20450;-69
2023/05/07 06:17:41;;;;;;;57.37;2.40;;;;;;;;;;5073934;28;20496;-69
2023/05/07 06:20:09;;;;;;;57.03;2.67;;;;;;;;;;5073417;28;20975;-69
2023/05/07 06:22:36;;;;;;;57.07;2.27;;;;;;;;;;5074049;28;20877;-70
2023/05/07 06:25:03;;;;;;;57.43;2.90;;;;;;;;;;5073665;28;20554;-69
2023/05/07 06:27:32;;;;;;;57.37;2.20;;;;;;;;;;5073921;28;20536;-69
2023/05/07 06:29:59;;;;;;;56.83;2.13;;;;;;;;;;5073368;28;20983;-70
2023/05/07 06:32:27;;;;;;;56.93;2.00;;;;;;;;;;5073472;28;20538;-69
2023/05/07 06:34:54;;;;;;;57.27;2.30;;;;;;;;;;5073766;28;20490;-69
2023/05/07 06:37:21;;;;;;;58.07;2.87;;;;;;;;;;5073763;28;20444;-69
2023/05/07 06:39:48;;;;;;;57.07;2.07;;;;;;;;;;5073258;28;20472;-70
2023/05/07 06:42:16;;;;;;;57.07;2.40;;;;;;;;;;5073419;28;20966;-70
2023/05/07 06:44:43;;;;;;;56.87;2.20;;;;;;;;;;5073386;28;20454;-70
2023/05/07 06:47:10;;;;;;;57.13;2.20;;;;;;;;;;5073314;28;20957;-70
2023/05/07 06:49:38;;;;;;;57.17;2.30;;;;;;;;;;5073096;28;20479;-67
2023/05/07 06:52:05;;;;;;;57.20;2.30;;;;;;;;;;5073173;28;20454;-68
2023/05/07 06:54:32;;;;;;;56.87;2.30;;;;;;;;;;5073090;28;20897;-68
2023/05/07 06:57:00;;;;;;;58.37;2.73;;;;;;;;;;5072632;28;20451;-68
2023/05/07 06:59:27;;;;;;;56.80;2.20;;;;;;;;;;5072104;28;20478;-68
2023/05/07 07:01:54;;;;;;;57.07;2.20;;;;;;;;;;5072688;28;20473;-68
2023/05/07 07:04:22;;;;;;;57.17;2.20;;;;;;;;;;5072500;28;20947;-68
2023/05/07 07:06:51;;;;;;;57.20;2.57;;;;;;;;;;5072598;28;20859;-68
2023/05/07 07:09:18;;;;;;;56.87;2.20;;;;;;;;;;5072078;28;20460;-68
2023/05/07 07:11:45;;;;;;;57.30;2.40;;;;;;;;;;5072896;28;20817;-68
2023/05/07 07:14:12;;;;;;;57.50;2.77;;;;;;;;;;5072618;28;20566;-68
2023/05/07 07:16:40;;;;;;;57.23;2.27;;;;;;;;;;5072976;28;20513;-68
2023/05/07 07:19:07;;;;;;;57.20;2.20;;;;;;;;;;5072595;28;20454;-68
2023/05/07 07:21:34;;;;;;;57.00;2.20;;;;;;;;;;5072645;28;20520;-68
2023/05/07 07:24:03;;;;;;;57.17;2.40;;;;;;;;;;5072739;28;20455;-68
2023/05/07 07:26:31;;;;;;;56.97;2.20;;;;;;;;;;5072572;28;20458;-68
2023/05/07 07:28:58;;;;;;;57.10;2.17;;;;;;;;;;5072435;28;20546;-68
2023/05/07 07:31:25;;;;;;;58.07;3.17;;;;;;;;;;5072517;28;20849;-68
2023/05/07 07:33:52;;;;;;;57.17;2.20;;;;;;;;;;5072513;28;20557;-68
2023/05/07 07:36:19;;;;;;;56.97;2.13;;;;;;;;;;5072456;28;20816;-68
2023/05/07 07:38:46;;;;;;;64.17;4.70;;;;;;;;;;5072021;28;20447;-71
2023/05/07 07:41:14;;;;;;;57.43;2.67;;;;;;;;;;5072103;28;20472;-71
2023/05/07 07:43:42;;;;;;;57.40;2.07;;;;;;;;;;5072484;28;20823;-71
2023/05/07 07:46:09;;;;;;;57.23;2.23;;;;;;;;;;5072305;28;20448;-71
2023/05/07 07:48:36;;;;;;;57.90;2.40;;;;;;;;;;5071913;28;20841;-71
2023/05/07 07:51:03;;;;;;;57.07;2.17;;;;;;;;;;5072047;28;20471;-71
2023/05/07 07:53:30;;;;;;;57.27;2.30;;;;;;;;;;5072018;28;20471;-71
2023/05/07 07:55:57;;;;;;;57.10;2.10;;;;;;;;;;5072061;28;20447;-71
2023/05/07 07:58:26;;;;;;;57.70;2.90;;;;;;;;;;5071600;28;20454;-68
2023/05/07 08:00:55;;;;;;;56.87;1.90;;;;;;;;;;5071923;28;20467;-68
2023/05/07 08:03:22;;;;;;;56.97;2.17;;;;;;;;;;5072183;28;20458;-69
2023/05/07 08:05:50;;;;;;;57.03;2.10;;;;;;;;;;5072131;28;20792;-69
2023/05/07 08:08:18;;;;;;;57.50;2.10;;;;;;;;;;5071624;28;20452;-69
2023/05/07 08:10:45;;;;;;;57.20;2.67;;;;;;;;;;5071836;28;20550;-70
2023/05/07 08:13:12;;;;;;;56.77;2.00;;;;;;;;;;5072071;28;20530;-70
2023/05/07 08:15:40;;;;;;;57.03;1.90;;;;;;;;;;5071810;28;20452;-69
2023/05/07 08:18:07;;;;;;;56.93;2.07;;;;;;;;;;5071915;28;20443;-70
2023/05/07 08:20:39;;;;;;;57.10;2.20;;;;;;;;;;5071364;28;20467;-67
2023/05/07 08:23:07;;;;;;;57.27;2.20;;;;;;;;;;5071780;28;21199;-67
2023/05/07 08:25:34;;;;;;;57.10;1.97;;;;;;;;;;5071888;28;20501;-68
2023/05/07 08:28:03;;;;;;;57.77;2.77;;;;;;;;;;5071726;28;20458;-67
2023/05/07 08:30:30;;;;;;;57.80;3.10;;;;;;;;;;5071433;28;20887;-67
2023/05/07 08:32:58;;;;;;;56.97;2.10;;;;;;;;;;5071757;28;20549;-67
2023/05/07 08:35:26;;;;;;;57.30;2.20;;;;;;;;;;5071694;28;21022;-69
2023/05/07 08:37:53;;;;;;;57.00;2.00;;;;;;;;;;5071863;28;20820;-70
2023/05/07 08:40:21;;;;;;;57.20;2.20;;;;;;;;;;5071669;28;20478;-70
2023/05/07 08:42:50;;;;;;;57.40;2.13;;;;;;;;;;5071961;28;20932;-70
2023/05/07 08:45:18;;;;;;;57.03;2.10;;;;;;;;;;5071715;28;20439;-70
2023/05/07 08:47:48;;;;;;;57.20;2.30;;;;;;;;;;5071529;28;20439;-67
2023/05/07 08:50:16;;;;;;;57.00;2.00;;;;;;;;;;5071445;28;20463;-70
2023/05/07 08:52:43;;;;;;;56.63;2.00;;;;;;;;;;5071926;28;20448;-69
2023/05/07 08:55:11;;;;;;;57.10;2.50;;;;;;;;;;5071767;28;20487;-70
2023/05/07 08:57:38;;;;;;;58.13;2.17;;;;;;;;;;5071631;28;20451;-69
2023/05/07 09:00:07;;;;;;;57.10;2.50;;;;;;;;;;5071253;28;20463;-70
2023/05/07 09:02:34;;;;;;;57.10;2.73;;;;;;;;;;5071645;28;20573;-70
2023/05/07 09:05:01;;;;;;;56.97;2.30;;;;;;;;;;5071919;28;20754;-70
2023/05/07 09:07:30;;;;;;;58.33;2.63;;;;;;;;;;5071575;28;20827;-70
2023/05/07 09:09:57;;;;;;;57.20;2.23;;;;;;;;;;5073083;28;20513;-70
2023/05/07 09:12:24;;;;;;;56.87;1.87;;;;;;;;;;5075254;28;20797;-67
2023/05/07 09:14:51;;;;;;;57.10;2.30;;;;;;;;;;5074857;28;20490;-67
2023/05/07 09:17:19;;;;;;;57.27;2.20;;;;;;;;;;5074983;28;20458;-69
2023/05/07 09:19:46;;;;;;;57.27;2.33;;;;;;;;;;5074767;28;20493;-68
2023/05/07 09:22:13;;;;;;;58.50;2.60;;;;;;;;;;5075114;28;20479;-69
2023/05/07 09:24:42;;;;;;;58.03;2.93;;;;;;;;;;5074887;28;20457;-69
2023/05/07 09:27:13;;;;;;;57.00;2.20;;;;;;;;;;5074881;28;20470;-69
2023/05/07 09:29:40;;;;;;;56.70;2.30;;;;;;;;;;5074426;28;20490;-69
2023/05/07 09:32:07;;;;;;;57.87;2.70;;;;;;;;;;5074744;28;20945;-69
2023/05/07 09:34:35;;;;;;;56.70;1.90;;;;;;;;;;5074772;28;20482;-69
2023/05/07 09:37:02;;;;;;;56.73;2.23;;;;;;;;;;5074789;28;20454;-69
2023/05/07 09:39:39;;;;;;;57.60;2.10;;;;;;;;;;5074272;28;20450;-69
2023/05/07 09:42:08;;;;;;;56.47;2.00;;;;;;;;;;5074471;28;20450;-69
2023/05/07 09:44:35;;;;;;;57.07;2.00;;;;;;;;;;5074742;28;20482;-69
2023/05/07 09:47:04;;;;;;;56.30;2.17;;;;;;;;;;5074636;28;20447;-69
2023/05/07 09:49:31;;;;;;;56.47;1.90;;;;;;;;;;5074056;28;20462;-69
2023/05/07 09:51:59;;;;;;;56.57;2.40;;;;;;;;;;5074440;28;20447;-69
2023/05/07 09:54:27;;;;;;;58.23;2.13;;;;;;;;;;5074241;28;20479;-69
2023/05/07 09:56:54;;;;;;;57.30;2.20;;;;;;;;;;5074365;28;20491;-69
2023/05/07 09:59:23;;;;;;;59.10;2.63;;;;;;;;;;5074061;28;20479;-69
2023/05/07 10:01:50;;;;;;;58.17;2.63;;;;;;;;;;5074358;28;20458;-69
2023/05/07 10:04:18;;;;;;;56.97;2.17;;;;;;;;;;5074346;28;20443;-69
2023/05/07 10:06:46;;;;;;;56.77;2.10;;;;;;;;;;5074258;28;20469;-69
2023/05/07 10:09:14;;;;;;;56.77;2.00;;;;;;;;;;5073686;28;20455;-69
2023/05/07 10:11:42;;;;;;;56.97;2.10;;;;;;;;;;5073961;28;20975;-69
2023/05/07 10:14:09;;;;;;;56.87;2.27;;;;;;;;;;5074171;28;20873;-69
2023/05/07 10:16:38;;;;;;;56.83;2.10;;;;;;;;;;5073953;28;20457;-69
2023/05/07 10:19:05;;;;;;;56.67;2.00;;;;;;;;;;5073635;28;20451;-69
2023/05/07 10:21:36;;;;;;;56.57;1.80;;;;;;;;;;5073373;28;20463;-69
2023/05/07 10:24:08;;;;;;;56.60;2.00;;;;;;;;;;5074000;28;20463;-69
2023/05/07 10:26:36;;;;;;;56.57;1.90;;;;;;;;;;5073777;28;20443;-69
2023/05/07 10:29:05;;;;;;;56.37;2.10;;;;;;;;;;5073519;28;20449;-70
2023/05/07 10:31:46;;;;;;;56.10;1.53;;;;;;;;;;5073703;28;20467;-70
2023/05/07 10:34:17;;;;;;;56.27;1.60;;;;;;;;;;5073875;28;20471;-69
2023/05/07 10:36:45;;;;;;;56.90;2.40;;;;;;;;;;5073833;28;20448;-69
2023/05/07 10:39:12;;;;;;;56.40;2.20;;;;;;;;;;5073335;28;20444;-70
2023/05/07 10:41:40;;;;;;;56.37;1.80;;;;;;;;;;5073457;28;20471;-69
2023/05/07 10:44:07;;;;;;;56.30;1.80;;;;;;;;;;5073528;28;20443;-69
2023/05/07 10:46:35;;;;;;;56.40;1.83;;;;;;;;;;5073251;28;20450;-70
2023/05/07 10:49:11;;;;;;;56.07;1.80;;;;;;;;;;5072934;28;20460;-69
2023/05/07 10:51:39;;;;;;;56.30;2.03;;;;;;;;;;5073510;28;20473;-70
2023/05/07 10:54:23;;;;;;;55.90;1.63;;;;;;;;;;5073109;28;20444;-69
2023/05/07 10:56:50;;;;;;;56.10;1.70;;;;;;;;;;5073011;28;20447;-69
2023/05/07 10:59:41;;;;;;;56.17;1.77;;;;;;;;;;5072902;28;20493;-69
2023/05/07 11:02:10;;;;;;;56.27;1.70;;;;;;;;;;5073242;28;20504;-69
2023/05/07 11:04:38;;;;;;;56.43;2.10;;;;;;;;;;5073014;28;20486;-70
2023/05/07 11:07:24;;;;;;;56.40;2.10;;;;;;;;;;5072880;28;20459;-70
2023/05/07 11:10:01;;;;;;;56.37;1.80;;;;;;;;;;5072488;28;20478;-70
2023/05/07 11:12:46;;;;;;;55.93;1.80;;;;;;;;;;5073104;28;20450;-69
2023/05/07 11:15:15;;;;;;;56.17;1.70;;;;;;;;;;5072838;28;20435;-69
2023/05/07 11:17:54;;;;;;;56.50;2.00;;;;;;;;;;5072776;28;20455;-69
2023/05/07 11:20:21;;;;;;;59.70;2.60;;;;;;;;;;5072614;28;20477;-69
2023/05/07 11:22:48;;;;;;;56.70;1.80;;;;;;;;;;5072889;28;20451;-69
2023/05/07 11:25:20;;;;;;;57.00;2.57;;;;;;;;;;5072438;28;20487;-69
2023/05/07 11:27:47;;;;;;;56.70;1.80;;;;;;;;;;5072689;28;20539;-69
2023/05/07 11:30:19;;;;;;;56.70;1.80;;;;;;;;;;5072093;28;20472;-69
2023/05/07 11:32:48;;;;;;;57.43;2.07;;;;;;;;;;5071759;28;20944;-69
2023/05/07 11:35:16;;;;;;;56.70;1.80;;;;;;;;;;5072391;28;20439;-69
2023/05/07 11:37:46;;;;;;;56.73;2.03;;;;;;;;;;5072274;28;20448;-69
2023/05/07 11:40:13;;;;;;;57.40;2.33;;;;;;;;;;5072027;28;20471;-69
2023/05/07 11:42:42;;;;;;;56.53;1.90;;;;;;;;;;5072372;28;20808;-69
2023/05/07 11:45:10;;;;;;;57.07;2.13;;;;;;;;;;5072345;28;20483;-69
2023/05/07 11:47:37;;;;;;;56.47;2.00;;;;;;;;;;5072362;28;20830;-69
2023/05/07 11:50:05;;;;;;;56.87;1.90;;;;;;;;;;5071909;28;20463;-69
2023/05/07 11:52:32;;;;;;;56.80;2.20;;;;;;;;;;5072263;28;20443;-69
2023/05/07 11:55:00;;;;;;;56.27;1.80;;;;;;;;;;5072121;28;20439;-69
2023/05/07 11:57:28;;;;;;;57.00;2.40;;;;;;;;;;5072041;28;20733;-69
2023/05/07 11:59:57;;;;;;;56.63;1.90;;;;;;;;;;5071858;28;20470;-69
2023/05/07 12:02:25;;;;;;;56.47;1.80;;;;;;;;;;5071990;28;20452;-69
2023/05/07 12:04:52;;;;;;;56.50;2.10;;;;;;;;;;5072058;28;20552;-69
2023/05/07 12:07:19;;;;;;;56.57;1.93;;;;;;;;;;5071881;28;20447;-69
2023/05/07 12:09:47;;;;;;;56.53;2.07;;;;;;;;;;5071478;28;20554;-69
2023/05/07 12:12:15;;;;;;;56.73;2.10;;;;;;;;;;5071796;28;20530;-69
2023/05/07 12:14:42;;;;;;;56.90;2.00;;;;;;;;;;5072062;28;20482;-69
2023/05/07 12:17:11;;;;;;;56.83;1.90;;;;;;;;;;5072091;28;20455;-69
2023/05/07 12:19:39;;;;;;;56.80;1.80;;;;;;;;;;5071388;28;20463;-69
2023/05/07 12:22:07;;;;;;;58.30;2.93;;;;;;;;;;5071789;28;20455;-69
2023/05/07 12:24:44;;;;;;;56.57;1.90;;;;;;;;;;5071330;28;20464;-69
2023/05/07 12:27:11;;;;;;;56.97;2.20;;;;;;;;;;5071900;28;20447;-69
2023/05/07 12:29:40;;;;;;;57.13;2.27;;;;;;;;;;5071508;28;21062;-69
2023/05/07 12:32:07;;;;;;;57.10;2.10;;;;;;;;;;5071716;28;20458;-69
2023/05/07 12:34:36;;;;;;;56.80;2.00;;;;;;;;;;5071609;28;20443;-69
2023/05/07 12:37:04;;;;;;;57.13;2.20;;;;;;;;;;5071497;28;20451;-69
2023/05/07 12:39:32;;;;;;;57.67;2.47;;;;;;;;;;5071116;28;20443;-69
2023/05/07 12:42:00;;;;;;;57.07;2.20;;;;;;;;;;5071750;28;20546;-69
2023/05/07 12:44:32;;;;;;;61.80;2.57;;;;;;;;;;5074613;28;20474;-69
2023/05/07 12:47:00;;;;;;;57.37;2.20;;;;;;;;;;5075659;28;20954;-69
2023/05/07 12:49:27;;;;;;;56.97;2.47;;;;;;;;;;5075208;28;20821;-69
2023/05/07 12:51:56;;;;;;;57.17;2.27;;;;;;;;;;5075787;28;20450;-69
2023/05/07 12:54:30;;;;;;;57.47;2.67;;;;;;;;;;5075580;28;20451;-70
2023/05/07 12:57:03;;;;;;;57.17;2.30;;;;;;;;;;5075484;28;20447;-69
2023/05/07 12:59:34;;;;;;;57.00;2.27;;;;;;;;;;5075581;28;20443;-69
2023/05/07 13:02:01;;;;;;;56.93;2.00;;;;;;;;;;5075379;28;20524;-69
2023/05/07 13:04:28;;;;;;;57.50;2.17;;;;;;;;;;5075281;28;20451;-69
2023/05/07 13:06:57;;;;;;;57.50;2.00;;;;;;;;;;5075328;28;20491;-69
2023/05/07 13:09:24;;;;;;;57.60;2.30;;;;;;;;;;5074906;28;20439;-69
2023/05/07 13:11:51;;;;;;;59.97;3.00;;;;;;;;;;5075234;28;20501;-69
2023/05/07 13:14:20;;;;;;;58.07;2.63;;;;;;;;;;5075147;28;20450;-69
2023/05/07 13:16:47;;;;;;;57.30;2.20;;;;;;;;;;5074964;28;20978;-69
2023/05/07 13:19:17;;;;;;;56.97;2.63;;;;;;;;;;5074878;28;20447;-69
2023/05/07 13:21:44;;;;;;;61.30;5.97;;;;;;;;;;5074998;28;20515;-70
2023/05/07 13:24:12;;;;;;;57.57;2.70;;;;;;;;;;5074927;28;20574;-69
2023/05/07 13:26:40;;;;;;;57.47;2.10;;;;;;;;;;5074884;28;20491;-68
2023/05/07 13:29:07;;;;;;;57.13;2.27;;;;;;;;;;5074445;28;20454;-68
2023/05/07 13:31:35;;;;;;;57.50;2.30;;;;;;;;;;5074547;28;20475;-68
2023/05/07 13:34:02;;;;;;;57.60;2.40;;;;;;;;;;5074621;28;20467;-68
2023/05/07 13:36:32;;;;;;;57.53;2.27;;;;;;;;;;5074803;28;20461;-68
2023/05/07 13:39:00;;;;;;;57.40;2.13;;;;;;;;;;5074533;28;20500;-68
2023/05/07 13:41:28;;;;;;;57.63;2.60;;;;;;;;;;5072518;28;20558;-68
2023/05/07 13:43:55;;;;;;;58.10;3.37;;;;;;;;;;5073943;28;20458;-68
2023/05/07 13:46:23;;;;;;;57.57;2.40;;;;;;;;;;5074048;28;20489;-68
2023/05/07 13:48:50;;;;;;;57.57;2.60;;;;;;;;;;5074226;28;20829;-68
2023/05/07 13:51:20;;;;;;;57.37;2.40;;;;;;;;;;5074071;28;20475;-68
2023/05/07 13:53:47;;;;;;;57.60;2.60;;;;;;;;;;5073933;28;20952;-68
2023/05/07 13:56:14;;;;;;;57.23;2.40;;;;;;;;;;5073364;28;20439;-68
2023/05/07 13:58:43;;;;;;;57.63;2.90;;;;;;;;;;5074054;28;20451;-68
2023/05/07 14:01:10;;;;;;;57.47;2.43;;;;;;;;;;5074056;28;20478;-67
2023/05/07 14:03:39;;;;;;;57.60;2.30;;;;;;;;;;5073987;28;20452;-69
2023/05/07 14:06:06;;;;;;;57.43;2.50;;;;;;;;;;5073710;28;20483;-68
2023/05/07 14:08:33;;;;;;;57.33;2.30;;;;;;;;;;5073369;28;20444;-68
2023/05/07 14:11:00;;;;;;;57.27;2.20;;;;;;;;;;5074291;28;20470;-69
2023/05/07 14:13:27;;;;;;;57.37;2.30;;;;;;;;;;5074198;28;20448;-68
2023/05/07 14:15:56;;;;;;;57.23;2.40;;;;;;;;;;5074168;28;20450;-69
2023/05/07 14:18:23;;;;;;;57.70;2.50;;;;;;;;;;5074019;28;20819;-69
2023/05/07 14:20:50;;;;;;;57.80;2.70;;;;;;;;;;5073684;28;20831;-69
2023/05/07 14:23:19;;;;;;;57.33;2.40;;;;;;;;;;5073882;28;20447;-69
2023/05/07 14:25:47;;;;;;;59.43;3.27;;;;;;;;;;5073620;28;21007;-68
2023/05/07 14:28:14;;;;;;;57.20;2.40;;;;;;;;;;5073903;28;20645;-68
2023/05/07 14:30:41;;;;;;;57.17;2.33;;;;;;;;;;5073781;28;20464;-68
2023/05/07 14:33:10;;;;;;;57.53;2.80;;;;;;;;;;5073909;28;20453;-69
2023/05/07 14:35:37;;;;;;;57.57;2.80;;;;;;;;;;5073575;28;20469;-69